Aktualne dane pomiarowe

Uwaga, wersja testowa! Automatyczne pobieranie danych za pomocą narzędzi lub skryptów to umożliwiających jest zabronione.

Dane meteo z obszaru Polski uzyskane na podstawie depesz SYNOP pobieranych co godzinę z NWS. Najedź myszką na symbol przedstawiony w tabeli, aby uzyskać informacje co do jego znaczenia. Prosimy pamiętać, że to testowa wersja strony, która jeszcze nie jest ukończona. Stworzono również jest krótki FAQ dotyczący korzystania z tej podstrony Anomalie temperatury w chwili obecnej odniesione są do okresu referencyjnego 1951-2016. Okres ten będzie później zmieniony na 1981-2010. Kliknij ikonę aby pobrać plik CSV. Kliknij ikonę aby wygenerować mapę synoptyczną dla danego terminu.

Wybierz Datę:    

        

Suwałki (12195)

Dane terminowe dla wybranej stacji. Kliknij datę, aby otrzymać dane z tego terminu dla wszystkich stacji.

TemperaturaZachmurzenieWiatrCiśnienieOpadyPogoda
 Data t td wb tx tn tg rh  Nt Nl Cl Cm Ch ws wd g1 g2 wx mslp ppp ch 24h 12h t ww ww w1 w2  
2019-07-04 23:00:00 14.5 6.8 10.1--- 6050.0wxwxwx6wx-1261011.6 989.5 -1.9---------
2019-07-04 22:00:00 14.3 6.6 9.9--- 6040.0wxwxwx4wx--41012.3 990.2 -1.7---------
2019-07-04 21:00:00 14.4 6.7 10.0--- 6050.0wxwxwx4wx--41013.2 991.0 -1.4---------
2019-07-04 20:00:00 14.5 6.3 9.8--- 5845.0wxwxwx4wx--41013.6 991.4 -1.5---------
2019-07-04 19:00:00 15.1 5.9 10.0--- 5440.0wxwxwx4wx--41014.0 991.9 -1.6---------
2019-07-04 18:00:00 15.3 6.3 10.2 16.6 11.2- 5535.0wx-wx3wx-1431014.5 992.4 -1.5- 2.012wx-w1--
2019-07-04 17:00:00 16.4 7.1 11.1--- 5440.0wxwxwxwx5wx--51014.9 992.9 -1.4---------
2019-07-04 16:00:00 15.5 6.8 10.5--- 5645.0wxwxwx6wx---1015.6 993.5 -0.8---------
2019-07-04 15:00:00 15.5 7.8 11.0--- 6035.0wxwxwx6wx-1461016.0 993.9 -0.7---wx---
2019-07-04 14:00:00 13.7 11.4 12.1--- 8635.0wxwxwx3wx-1431016.6 994.3 -0.5---wx---
2019-07-04 13:00:00 14.7 10.3 11.9--- 7540.0wxwxwx5wx-1451016.5 994.3 -0.4---wx---
2019-07-04 12:00:00 14.9 7.2 10.4--- 6035.0wxwxwx5wx---1016.8 994.6 0.1---wx-w1--
2019-07-04 11:00:00 13.9 7.4 10.0--- 6550.0wxwxwx5wx101051017.1 994.8 0.5---------
2019-07-04 10:00:00 12.5 6.7 9.1--- 6830.0wxwxwx6wx141461017.1 994.7 0.4---wx---
2019-07-04 09:00:00 11.9 6.8 8.8--- 718.0wxwxwx8wx141481016.9 994.5 0.0---wx---
2019-07-04 08:00:00 14.1 5.4 9.3--- 5635.0wxwxwx6wx111161016.6 994.3 -0.2---------
2019-07-04 07:00:00 14.9 7.4 10.5--- 6135.0wxwxwx5wx---1016.5 994.3 -0.1---------
2019-07-04 06:00:00 13.8 6.9 9.8 14.9 8.6 6 6335.0wxwxwxwx5wx101051016.8 994.5 -0.1 0.3 0.012----- 8.0
2019-07-04 05:00:00 11.9 7.0 8.9--- 7235.0wx-wx6wx--61016.9 994.5 -0.1---------
2019-07-04 04:00:00 10.0 7.1 8.1--- 8235.0wx-wx3wx--31017.0 994.4 -0.2---------
2019-07-04 03:00:00 9.7 6.8 7.8--- 8250.0wx-wx3wx--31017.2 994.6 0.2---------
2019-07-04 02:00:00 10.1 6.1 7.7--- 7650.0wx-wx4wx--41017.2 994.6 -0.4---------
2019-07-04 01:00:00 8.8 5.4 6.7--- 7950.0wx-wx3wx--31017.3 994.6 -0.1---------
2019-07-04 00:00:00 9.0 5.4 6.8--- 7850.0wx-wx3wx-1031017.1 994.4 0.0- 0.06------
2019-07-03 23:00:00 9.4 5.4 7.0--- 7650.0wx-3wx--31017.6 995.0 0.6---------
2019-07-03 22:00:00 8.9 4.5 6.3--- 7426.0wx-3wx--31017.4 994.7 0.5---------
2019-07-03 21:00:00 10.6 4.7 7.2--- 6750.0wx-wx4wx-1041016.9 994.4 0.3---------
2019-07-03 20:00:00 11.1 3.9 7.1--- 6150.0wx-wx3wx--31016.9 994.4 0.3---------
2019-07-03 19:00:00 13.3 3.9 8.2--- 5350.0wxwxwxwx4wx-1041016.5 994.2 0.1---------
2019-07-03 18:00:00 14.9 4.3 9.2 17.9 12.9- 4950.0wxwxwx4wx-1441016.3 994.1 0.4- 0.312wx-w1--
2019-07-03 17:00:00 16.3 3.4 9.6--- 4245.0wxwxwx5wx-1251016.2 994.1 0.1---------
2019-07-03 16:00:00 16.0 5.0 10.0--- 4835.0wxwxwx7wx121271016.2 994.1 0.2---------
2019-07-03 15:00:00 17.0 5.6 10.8--- 4730.0wxwxwx5wx-1451015.7 993.7 0.3---wx-w2--
2019-07-03 14:00:00 15.6 7.9 11.1--- 6030.0wxwxwx6wx-1261016.1 994.0 0.8---------
2019-07-03 13:00:00 13.2 8.9 10.5--- 7540.0wxwxwx4wx-1441016.2 993.9 1.1---wx---
2019-07-03 12:00:00 17.2 5.8 10.9--- 4735.0wxwxwxwx8wx13--1015.4 993.4 1.1---wx-w1--
2019-07-03 11:00:00 13.2 8.3 10.2--- 7211.0wxwxwx7wx121271015.5 993.2 1.0---wx---
2019-07-03 10:00:00 15.3 5.8 10.0--- 5335.0wxwxwxwx8wx141481014.9 992.8 1.1---------
2019-07-03 09:00:00 15.1 6.1 10.0--- 5529.0wxwxwxwx8wx131481014.4 992.3 1.0---------
2019-07-03 08:00:00 14.9 7.0 10.3--- 5925.0wxwxwxwx6wx111461014.3 992.2 0.8---------
2019-07-03 07:00:00 14.2 7.7 10.3--- 6535.0wxwxwx7wx-1171013.9 991.7 0.6---------
2019-07-03 06:00:00 14.0 8.0 10.4 15.6 10.0 9 6730.0wxwxwxwx6wx-1261013.5 991.3 0.6 1.2 0.012----- 7.5
2019-07-03 05:00:00 12.8 8.9 10.3--- 7735.0wxwxwxwx6wx-1261013.7 991.4 0.9---------
2019-07-03 04:00:00 11.8 8.3 9.6--- 7935.0wx-wx6wx--61013.5 991.1 0.7---------
2019-07-03 03:00:00 10.2 7.3 8.3--- 8235.0wxwxwx4wx--41013.2 990.7 0.0---------
2019-07-03 02:00:00 10.6 6.9 8.3--- 7835.0wxwxwx4wx--41012.9 990.5 -0.2---------
2019-07-03 01:00:00 11.0 6.7 8.4--- 7535.0wxwxwxwxwx5wx--51012.8 990.4 -0.5---------
2019-07-03 00:00:00 11.1 6.4 8.3--- 7345.0wxwxwxwx4wx-1041013.1 990.7 -0.2- 0.06------
1.7 ms

 

Print Friendly, PDF & Email